sensor_id;sensor_type;location;lat;lon;timestamp;temperature;humidity
50162;DHT22;36061;48.116;11.612;2023-08-30T00:01:33;12.60;99.90
50162;DHT22;36061;48.116;11.612;2023-08-30T00:04:01;12.70;99.90
50162;DHT22;36061;48.116;11.612;2023-08-30T00:06:30;12.60;99.90
50162;DHT22;36061;48.116;11.612;2023-08-30T00:08:57;12.60;99.90
50162;DHT22;36061;48.116;11.612;2023-08-30T00:11:25;12.60;99.90
50162;DHT22;36061;48.116;11.612;2023-08-30T00:13:52;12.60;99.90
50162;DHT22;36061;48.116;11.612;2023-08-30T00:16:19;12.60;99.90
50162;DHT22;36061;48.116;11.612;2023-08-30T00:18:46;12.70;99.90
50162;DHT22;36061;48.116;11.612;2023-08-30T00:21:13;12.70;99.90
50162;DHT22;36061;48.116;11.612;2023-08-30T00:23:43;12.70;99.90
50162;DHT22;36061;48.116;11.612;2023-08-30T00:26:11;12.70;99.90
50162;DHT22;36061;48.116;11.612;2023-08-30T00:28:38;12.60;99.90
50162;DHT22;36061;48.116;11.612;2023-08-30T00:31:05;12.60;99.90
50162;DHT22;36061;48.116;11.612;2023-08-30T00:33:32;12.70;99.90
50162;DHT22;36061;48.116;11.612;2023-08-30T00:36:00;12.60;99.90
50162;DHT22;36061;48.116;11.612;2023-08-30T00:38:28;12.60;99.90
50162;DHT22;36061;48.116;11.612;2023-08-30T00:40:57;12.60;99.90
50162;DHT22;36061;48.116;11.612;2023-08-30T00:43:24;12.60;99.90
50162;DHT22;36061;48.116;11.612;2023-08-30T00:45:52;12.60;99.90
50162;DHT22;36061;48.116;11.612;2023-08-30T00:48:20;12.60;99.90
50162;DHT22;36061;48.116;11.612;2023-08-30T00:50:48;12.60;99.90
50162;DHT22;36061;48.116;11.612;2023-08-30T00:53:15;12.60;99.90
50162;DHT22;36061;48.116;11.612;2023-08-30T00:55:44;12.60;99.90
50162;DHT22;36061;48.116;11.612;2023-08-30T00:58:13;12.50;99.90
50162;DHT22;36061;48.116;11.612;2023-08-30T01:00:40;12.50;99.90
50162;DHT22;36061;48.116;11.612;2023-08-30T01:03:09;12.50;99.90
50162;DHT22;36061;48.116;11.612;2023-08-30T01:05:37;12.50;99.90
50162;DHT22;36061;48.116;11.612;2023-08-30T01:08:04;12.50;99.90
50162;DHT22;36061;48.116;11.612;2023-08-30T01:10:41;12.50;99.90
50162;DHT22;36061;48.116;11.612;2023-08-30T01:13:18;12.50;99.90
50162;DHT22;36061;48.116;11.612;2023-08-30T01:15:47;12.50;99.90
50162;DHT22;36061;48.116;11.612;2023-08-30T01:18:16;12.40;99.90
50162;DHT22;36061;48.116;11.612;2023-08-30T01:20:45;12.40;99.90
50162;DHT22;36061;48.116;11.612;2023-08-30T01:23:23;12.40;99.90
50162;DHT22;36061;48.116;11.612;2023-08-30T01:25:57;12.40;99.90
50162;DHT22;36061;48.116;11.612;2023-08-30T01:28:28;12.40;99.90
50162;DHT22;36061;48.116;11.612;2023-08-30T01:30:56;12.40;99.90
50162;DHT22;36061;48.116;11.612;2023-08-30T01:33:27;12.30;99.90
50162;DHT22;36061;48.116;11.612;2023-08-30T01:35:57;12.40;99.90
50162;DHT22;36061;48.116;11.612;2023-08-30T01:38:26;12.40;99.90
50162;DHT22;36061;48.116;11.612;2023-08-30T01:40:56;12.40;99.90
50162;DHT22;36061;48.116;11.612;2023-08-30T01:43:26;12.40;99.90
50162;DHT22;36061;48.116;11.612;2023-08-30T01:45:54;12.40;99.90
50162;DHT22;36061;48.116;11.612;2023-08-30T01:48:23;12.40;99.90
50162;DHT22;36061;48.116;11.612;2023-08-30T01:50:51;12.50;99.90
50162;DHT22;36061;48.116;11.612;2023-08-30T01:53:21;12.50;99.90
50162;DHT22;36061;48.116;11.612;2023-08-30T01:55:49;12.50;99.90
50162;DHT22;36061;48.116;11.612;2023-08-30T01:58:16;12.50;99.90
50162;DHT22;36061;48.116;11.612;2023-08-30T02:00:44;12.50;99.90
50162;DHT22;36061;48.116;11.612;2023-08-30T02:03:13;12.50;99.90
50162;DHT22;36061;48.116;11.612;2023-08-30T02:05:48;12.50;99.90
50162;DHT22;36061;48.116;11.612;2023-08-30T02:08:20;12.50;99.90
50162;DHT22;36061;48.116;11.612;2023-08-30T02:10:53;12.50;99.90
50162;DHT22;36061;48.116;11.612;2023-08-30T02:13:27;12.50;99.90
50162;DHT22;36061;48.116;11.612;2023-08-30T02:15:56;12.40;99.90
50162;DHT22;36061;48.116;11.612;2023-08-30T02:18:26;12.40;99.90
50162;DHT22;36061;48.116;11.612;2023-08-30T02:20:56;12.50;99.90
50162;DHT22;36061;48.116;11.612;2023-08-30T02:23:24;12.40;99.90
50162;DHT22;36061;48.116;11.612;2023-08-30T02:25:53;12.50;99.90
50162;DHT22;36061;48.116;11.612;2023-08-30T02:28:21;12.50;99.90
50162;DHT22;36061;48.116;11.612;2023-08-30T02:30:48;12.50;99.90
50162;DHT22;36061;48.116;11.612;2023-08-30T02:33:18;12.50;99.90
50162;DHT22;36061;48.116;11.612;2023-08-30T02:35:45;12.50;99.90
50162;DHT22;36061;48.116;11.612;2023-08-30T02:38:12;12.50;99.90
50162;DHT22;36061;48.116;11.612;2023-08-30T02:40:40;12.60;99.90
50162;DHT22;36061;48.116;11.612;2023-08-30T02:43:07;12.50;99.90
50162;DHT22;36061;48.116;11.612;2023-08-30T02:45:35;12.50;99.90
50162;DHT22;36061;48.116;11.612;2023-08-30T02:48:02;12.50;99.90
50162;DHT22;36061;48.116;11.612;2023-08-30T02:50:31;12.50;99.90
50162;DHT22;36061;48.116;11.612;2023-08-30T02:52:58;12.50;99.90
50162;DHT22;36061;48.116;11.612;2023-08-30T02:55:25;12.50;99.90
50162;DHT22;36061;48.116;11.612;2023-08-30T02:57:53;12.50;99.90
50162;DHT22;36061;48.116;11.612;2023-08-30T03:00:21;12.50;99.90
50162;DHT22;36061;48.116;11.612;2023-08-30T03:02:49;12.50;99.90
50162;DHT22;36061;48.116;11.612;2023-08-30T03:05:17;12.40;99.90
50162;DHT22;36061;48.116;11.612;2023-08-30T03:07:45;12.40;99.90
50162;DHT22;36061;48.116;11.612;2023-08-30T03:10:13;12.50;99.90
50162;DHT22;36061;48.116;11.612;2023-08-30T03:12:40;12.50;99.90
50162;DHT22;36061;48.116;11.612;2023-08-30T03:15:07;12.50;99.90
50162;DHT22;36061;48.116;11.612;2023-08-30T03:17:35;12.50;99.90
50162;DHT22;36061;48.116;11.612;2023-08-30T03:20:03;12.50;99.90
50162;DHT22;36061;48.116;11.612;2023-08-30T03:22:31;12.50;99.90
50162;DHT22;36061;48.116;11.612;2023-08-30T03:25:00;12.40;99.90
50162;DHT22;36061;48.116;11.612;2023-08-30T03:27:29;12.40;99.90
50162;DHT22;36061;48.116;11.612;2023-08-30T03:29:56;12.40;99.90
50162;DHT22;36061;48.116;11.612;2023-08-30T03:32:23;12.40;99.90
50162;DHT22;36061;48.116;11.612;2023-08-30T03:34:51;12.40;99.90
50162;DHT22;36061;48.116;11.612;2023-08-30T03:37:18;12.40;99.90
50162;DHT22;36061;48.116;11.612;2023-08-30T03:39:45;12.40;99.90
50162;DHT22;36061;48.116;11.612;2023-08-30T03:42:14;12.40;99.90
50162;DHT22;36061;48.116;11.612;2023-08-30T03:44:41;12.40;99.90
50162;DHT22;36061;48.116;11.612;2023-08-30T03:47:08;12.40;99.90
50162;DHT22;36061;48.116;11.612;2023-08-30T03:49:35;12.40;99.90
50162;DHT22;36061;48.116;11.612;2023-08-30T03:52:03;12.40;99.90
50162;DHT22;36061;48.116;11.612;2023-08-30T03:54:32;12.50;99.90
50162;DHT22;36061;48.116;11.612;2023-08-30T03:57:00;12.40;99.90
50162;DHT22;36061;48.116;11.612;2023-08-30T03:59:28;12.50;99.90
50162;DHT22;36061;48.116;11.612;2023-08-30T04:01:56;12.50;99.90
50162;DHT22;36061;48.116;11.612;2023-08-30T04:04:23;12.50;99.90
50162;DHT22;36061;48.116;11.612;2023-08-30T04:06:50;12.50;99.90
50162;DHT22;36061;48.116;11.612;2023-08-30T04:09:17;12.50;99.90
50162;DHT22;36061;48.116;11.612;2023-08-30T04:11:44;12.40;99.90
50162;DHT22;36061;48.116;11.612;2023-08-30T04:14:12;12.50;99.90
50162;DHT22;36061;48.116;11.612;2023-08-30T04:16:40;12.50;99.90
50162;DHT22;36061;48.116;11.612;2023-08-30T04:19:07;12.50;99.90
50162;DHT22;36061;48.116;11.612;2023-08-30T04:21:35;12.50;99.90
50162;DHT22;36061;48.116;11.612;2023-08-30T04:24:02;12.50;99.90
50162;DHT22;36061;48.116;11.612;2023-08-30T04:26:29;12.50;99.90
50162;DHT22;36061;48.116;11.612;2023-08-30T04:28:56;12.60;99.90
50162;DHT22;36061;48.116;11.612;2023-08-30T04:31:24;12.60;99.90
50162;DHT22;36061;48.116;11.612;2023-08-30T04:33:54;12.60;99.90
50162;DHT22;36061;48.116;11.612;2023-08-30T04:36:21;12.60;99.90
50162;DHT22;36061;48.116;11.612;2023-08-30T04:38:49;12.60;99.90
50162;DHT22;36061;48.116;11.612;2023-08-30T04:41:18;12.60;99.90
50162;DHT22;36061;48.116;11.612;2023-08-30T04:43:45;12.70;99.90
50162;DHT22;36061;48.116;11.612;2023-08-30T04:46:13;12.70;99.90
50162;DHT22;36061;48.116;11.612;2023-08-30T04:48:41;12.70;99.90
50162;DHT22;36061;48.116;11.612;2023-08-30T04:51:10;12.70;99.90
50162;DHT22;36061;48.116;11.612;2023-08-30T04:53:37;12.70;99.90
50162;DHT22;36061;48.116;11.612;2023-08-30T04:56:12;12.70;99.90
50162;DHT22;36061;48.116;11.612;2023-08-30T04:58:39;12.70;99.90
50162;DHT22;36061;48.116;11.612;2023-08-30T05:01:09;12.70;99.90
50162;DHT22;36061;48.116;11.612;2023-08-30T05:03:40;12.70;99.90
50162;DHT22;36061;48.116;11.612;2023-08-30T05:06:11;12.70;99.90
50162;DHT22;36061;48.116;11.612;2023-08-30T05:08:42;12.70;99.90
50162;DHT22;36061;48.116;11.612;2023-08-30T05:11:09;12.70;99.90
50162;DHT22;36061;48.116;11.612;2023-08-30T05:13:37;12.70;99.90
50162;DHT22;36061;48.116;11.612;2023-08-30T05:16:04;12.70;99.90
50162;DHT22;36061;48.116;11.612;2023-08-30T05:18:32;12.70;99.90
50162;DHT22;36061;48.116;11.612;2023-08-30T05:21:01;12.80;99.90
50162;DHT22;36061;48.116;11.612;2023-08-30T05:23:31;12.80;99.90
50162;DHT22;36061;48.116;11.612;2023-08-30T05:25:59;13.40;99.90
50162;DHT22;36061;48.116;11.612;2023-08-30T05:28:26;13.80;99.90
50162;DHT22;36061;48.116;11.612;2023-08-30T05:30:53;14.30;99.90
50162;DHT22;36061;48.116;11.612;2023-08-30T05:33:33;14.60;99.90
50162;DHT22;36061;48.116;11.612;2023-08-30T05:36:28;14.80;99.90
50162;DHT22;36061;48.116;11.612;2023-08-30T05:39:23;15.00;99.90
50162;DHT22;36061;48.116;11.612;2023-08-30T05:41:55;15.10;99.90
50162;DHT22;36061;48.116;11.612;2023-08-30T05:44:22;15.10;99.90
50162;DHT22;36061;48.116;11.612;2023-08-30T05:46:49;14.90;99.90
50162;DHT22;36061;48.116;11.612;2023-08-30T05:49:17;14.70;99.90
50162;DHT22;36061;48.116;11.612;2023-08-30T05:51:44;14.40;99.90
50162;DHT22;36061;48.116;11.612;2023-08-30T05:54:13;14.20;99.90
50162;DHT22;36061;48.116;11.612;2023-08-30T05:56:42;14.00;99.90
50162;DHT22;36061;48.116;11.612;2023-08-30T05:59:09;13.80;99.90
50162;DHT22;36061;48.116;11.612;2023-08-30T06:01:37;13.70;99.90
50162;DHT22;36061;48.116;11.612;2023-08-30T06:04:04;13.60;99.90
50162;DHT22;36061;48.116;11.612;2023-08-30T06:06:31;13.50;99.90
50162;DHT22;36061;48.116;11.612;2023-08-30T06:08:59;13.40;99.90
50162;DHT22;36061;48.116;11.612;2023-08-30T06:11:26;13.30;99.90
50162;DHT22;36061;48.116;11.612;2023-08-30T06:13:55;13.30;99.90
50162;DHT22;36061;48.116;11.612;2023-08-30T06:16:24;13.30;99.90
50162;DHT22;36061;48.116;11.612;2023-08-30T06:18:52;13.20;99.90
50162;DHT22;36061;48.116;11.612;2023-08-30T06:21:19;13.20;99.90
50162;DHT22;36061;48.116;11.612;2023-08-30T06:23:46;13.20;99.90
50162;DHT22;36061;48.116;11.612;2023-08-30T06:26:14;13.10;99.90
50162;DHT22;36061;48.116;11.612;2023-08-30T06:28:41;13.10;99.90
50162;DHT22;36061;48.116;11.612;2023-08-30T06:31:10;13.10;99.90
50162;DHT22;36061;48.116;11.612;2023-08-30T06:33:37;13.00;99.90
50162;DHT22;36061;48.116;11.612;2023-08-30T06:36:05;13.00;99.90
50162;DHT22;36061;48.116;11.612;2023-08-30T06:38:32;13.00;99.90
50162;DHT22;36061;48.116;11.612;2023-08-30T06:40:59;13.00;99.90
50162;DHT22;36061;48.116;11.612;2023-08-30T06:43:27;13.00;99.90
50162;DHT22;36061;48.116;11.612;2023-08-30T06:45:57;13.00;99.90
50162;DHT22;36061;48.116;11.612;2023-08-30T06:48:26;13.00;99.90
50162;DHT22;36061;48.116;11.612;2023-08-30T06:50:56;13.00;99.90
50162;DHT22;36061;48.116;11.612;2023-08-30T06:53:23;13.00;99.90
50162;DHT22;36061;48.116;11.612;2023-08-30T06:55:57;13.10;99.90
50162;DHT22;36061;48.116;11.612;2023-08-30T06:58:24;13.10;99.90
50162;DHT22;36061;48.116;11.612;2023-08-30T07:00:51;13.10;99.90
50162;DHT22;36061;48.116;11.612;2023-08-30T07:03:18;13.20;99.90
50162;DHT22;36061;48.116;11.612;2023-08-30T07:05:48;13.20;99.90
50162;DHT22;36061;48.116;11.612;2023-08-30T07:08:15;13.20;99.90
50162;DHT22;36061;48.116;11.612;2023-08-30T07:10:43;13.20;99.90
50162;DHT22;36061;48.116;11.612;2023-08-30T07:13:10;13.20;99.90
50162;DHT22;36061;48.116;11.612;2023-08-30T07:15:38;13.20;99.90
50162;DHT22;36061;48.116;11.612;2023-08-30T07:18:06;13.30;99.90
50162;DHT22;36061;48.116;11.612;2023-08-30T07:20:34;13.30;99.90
50162;DHT22;36061;48.116;11.612;2023-08-30T07:23:04;13.30;99.90
50162;DHT22;36061;48.116;11.612;2023-08-30T07:25:31;13.30;99.90
50162;DHT22;36061;48.116;11.612;2023-08-30T07:27:59;13.40;99.90
50162;DHT22;36061;48.116;11.612;2023-08-30T07:30:26;13.40;99.90
50162;DHT22;36061;48.116;11.612;2023-08-30T07:32:54;13.40;99.90
50162;DHT22;36061;48.116;11.612;2023-08-30T07:35:21;13.40;99.90
50162;DHT22;36061;48.116;11.612;2023-08-30T07:37:48;13.40;99.90
50162;DHT22;36061;48.116;11.612;2023-08-30T07:40:17;13.40;99.90
50162;DHT22;36061;48.116;11.612;2023-08-30T07:42:44;13.40;99.90
50162;DHT22;36061;48.116;11.612;2023-08-30T07:45:12;13.40;99.90
50162;DHT22;36061;48.116;11.612;2023-08-30T07:47:40;13.40;99.90
50162;DHT22;36061;48.116;11.612;2023-08-30T07:50:07;13.40;99.90
50162;DHT22;36061;48.116;11.612;2023-08-30T07:52:35;13.40;99.90
50162;DHT22;36061;48.116;11.612;2023-08-30T07:55:02;13.50;99.90
50162;DHT22;36061;48.116;11.612;2023-08-30T07:57:31;13.50;99.90
50162;DHT22;36061;48.116;11.612;2023-08-30T07:59:58;13.50;99.90
50162;DHT22;36061;48.116;11.612;2023-08-30T08:02:25;13.50;99.90
50162;DHT22;36061;48.116;11.612;2023-08-30T08:04:53;13.50;99.90
50162;DHT22;36061;48.116;11.612;2023-08-30T08:07:20;13.50;99.90
50162;DHT22;36061;48.116;11.612;2023-08-30T08:09:47;13.50;99.90
50162;DHT22;36061;48.116;11.612;2023-08-30T08:12:14;13.50;99.90
50162;DHT22;36061;48.116;11.612;2023-08-30T08:14:43;13.60;99.90
50162;DHT22;36061;48.116;11.612;2023-08-30T08:17:10;13.70;99.90
50162;DHT22;36061;48.116;11.612;2023-08-30T08:19:37;13.80;99.90
50162;DHT22;36061;48.116;11.612;2023-08-30T08:22:05;13.80;99.90
50162;DHT22;36061;48.116;11.612;2023-08-30T08:24:33;13.80;99.90
50162;DHT22;36061;48.116;11.612;2023-08-30T08:27:00;13.80;99.90
50162;DHT22;36061;48.116;11.612;2023-08-30T08:29:28;13.90;99.90
50162;DHT22;36061;48.116;11.612;2023-08-30T08:31:56;13.90;99.90
50162;DHT22;36061;48.116;11.612;2023-08-30T08:34:24;13.90;99.90
50162;DHT22;36061;48.116;11.612;2023-08-30T08:36:52;13.90;99.90
50162;DHT22;36061;48.116;11.612;2023-08-30T08:39:19;14.00;99.90
50162;DHT22;36061;48.116;11.612;2023-08-30T08:41:46;14.00;99.90
50162;DHT22;36061;48.116;11.612;2023-08-30T08:44:14;14.00;99.90
50162;DHT22;36061;48.116;11.612;2023-08-30T08:46:41;14.10;99.90
50162;DHT22;36061;48.116;11.612;2023-08-30T08:49:11;14.20;99.90
50162;DHT22;36061;48.116;11.612;2023-08-30T08:51:40;14.20;99.90
50162;DHT22;36061;48.116;11.612;2023-08-30T08:54:08;14.30;99.90
50162;DHT22;36061;48.116;11.612;2023-08-30T08:56:36;14.40;99.90
50162;DHT22;36061;48.116;11.612;2023-08-30T08:59:05;14.50;99.90
50162;DHT22;36061;48.116;11.612;2023-08-30T09:01:34;14.60;99.90
50162;DHT22;36061;48.116;11.612;2023-08-30T09:04:05;14.70;99.90
50162;DHT22;36061;48.116;11.612;2023-08-30T09:06:34;14.80;99.90
50162;DHT22;36061;48.116;11.612;2023-08-30T09:09:02;14.80;99.90
50162;DHT22;36061;48.116;11.612;2023-08-30T09:11:30;14.80;99.90
50162;DHT22;36061;48.116;11.612;2023-08-30T09:13:58;14.90;99.90
50162;DHT22;36061;48.116;11.612;2023-08-30T09:16:25;15.00;99.90
50162;DHT22;36061;48.116;11.612;2023-08-30T09:18:59;15.20;99.90
50162;DHT22;36061;48.116;11.612;2023-08-30T09:21:27;15.30;99.90
50162;DHT22;36061;48.116;11.612;2023-08-30T09:23:59;15.40;99.90
50162;DHT22;36061;48.116;11.612;2023-08-30T09:26:27;15.60;99.90
50162;DHT22;36061;48.116;11.612;2023-08-30T09:29:01;15.70;99.90
50162;DHT22;36061;48.116;11.612;2023-08-30T09:31:33;15.80;99.90
50162;DHT22;36061;48.116;11.612;2023-08-30T09:34:02;16.00;99.90
50162;DHT22;36061;48.116;11.612;2023-08-30T09:36:36;16.10;99.90
50162;DHT22;36061;48.116;11.612;2023-08-30T09:39:06;16.10;99.90
50162;DHT22;36061;48.116;11.612;2023-08-30T09:41:35;16.10;99.90
50162;DHT22;36061;48.116;11.612;2023-08-30T09:44:06;16.10;99.90
50162;DHT22;36061;48.116;11.612;2023-08-30T09:46:41;16.10;99.90
50162;DHT22;36061;48.116;11.612;2023-08-30T09:49:09;16.10;99.90
50162;DHT22;36061;48.116;11.612;2023-08-30T09:51:39;15.90;99.90
50162;DHT22;36061;48.116;11.612;2023-08-30T09:54:14;15.80;99.90
50162;DHT22;36061;48.116;11.612;2023-08-30T09:56:43;15.70;99.90
50162;DHT22;36061;48.116;11.612;2023-08-30T09:59:11;15.70;99.90
50162;DHT22;36061;48.116;11.612;2023-08-30T10:01:41;15.80;99.90
50162;DHT22;36061;48.116;11.612;2023-08-30T10:04:09;15.80;99.90
50162;DHT22;36061;48.116;11.612;2023-08-30T10:06:37;15.90;99.90
50162;DHT22;36061;48.116;11.612;2023-08-30T10:09:06;16.00;99.90
50162;DHT22;36061;48.116;11.612;2023-08-30T10:11:36;16.10;99.90
50162;DHT22;36061;48.116;11.612;2023-08-30T10:14:04;16.20;99.90
50162;DHT22;36061;48.116;11.612;2023-08-30T10:16:37;16.20;99.90
50162;DHT22;36061;48.116;11.612;2023-08-30T10:19:10;16.20;99.90
50162;DHT22;36061;48.116;11.612;2023-08-30T10:21:38;16.30;99.90
50162;DHT22;36061;48.116;11.612;2023-08-30T10:24:07;16.40;99.90
50162;DHT22;36061;48.116;11.612;2023-08-30T10:26:38;16.50;99.90
50162;DHT22;36061;48.116;11.612;2023-08-30T10:29:08;16.60;99.90
50162;DHT22;36061;48.116;11.612;2023-08-30T10:31:38;16.80;99.90
50162;DHT22;36061;48.116;11.612;2023-08-30T10:34:13;16.90;99.90
50162;DHT22;36061;48.116;11.612;2023-08-30T10:36:42;16.90;99.90
50162;DHT22;36061;48.116;11.612;2023-08-30T10:39:14;16.90;99.90
50162;DHT22;36061;48.116;11.612;2023-08-30T10:41:55;16.90;99.90
50162;DHT22;36061;48.116;11.612;2023-08-30T10:44:23;17.00;99.90
50162;DHT22;36061;48.116;11.612;2023-08-30T10:46:54;17.10;99.90
50162;DHT22;36061;48.116;11.612;2023-08-30T10:49:22;17.20;99.90
50162;DHT22;36061;48.116;11.612;2023-08-30T10:51:59;17.40;99.90
50162;DHT22;36061;48.116;11.612;2023-08-30T10:54:37;17.40;99.90
50162;DHT22;36061;48.116;11.612;2023-08-30T10:57:11;17.50;99.90
50162;DHT22;36061;48.116;11.612;2023-08-30T10:59:39;17.60;99.90
50162;DHT22;36061;48.116;11.612;2023-08-30T11:02:06;17.50;99.90
50162;DHT22;36061;48.116;11.612;2023-08-30T11:04:39;17.40;99.90
50162;DHT22;36061;48.116;11.612;2023-08-30T11:07:08;17.30;99.90
50162;DHT22;36061;48.116;11.612;2023-08-30T11:09:37;17.30;99.90
50162;DHT22;36061;48.116;11.612;2023-08-30T11:12:08;17.30;99.90
50162;DHT22;36061;48.116;11.612;2023-08-30T11:14:35;17.30;99.90
50162;DHT22;36061;48.116;11.612;2023-08-30T11:17:19;17.20;99.90
50162;DHT22;36061;48.116;11.612;2023-08-30T11:19:51;17.20;99.90
50162;DHT22;36061;48.116;11.612;2023-08-30T11:22:24;17.20;99.90
50162;DHT22;36061;48.116;11.612;2023-08-30T11:24:52;17.10;99.90
50162;DHT22;36061;48.116;11.612;2023-08-30T11:27:20;17.10;99.90
50162;DHT22;36061;48.116;11.612;2023-08-30T11:29:47;17.00;99.90
50162;DHT22;36061;48.116;11.612;2023-08-30T11:32:16;17.00;99.90
50162;DHT22;36061;48.116;11.612;2023-08-30T11:34:43;17.00;99.90
50162;DHT22;36061;48.116;11.612;2023-08-30T11:37:12;17.00;99.90
50162;DHT22;36061;48.116;11.612;2023-08-30T11:39:39;17.00;99.90
50162;DHT22;36061;48.116;11.612;2023-08-30T11:42:06;17.00;99.90
50162;DHT22;36061;48.116;11.612;2023-08-30T11:44:36;17.00;99.90
50162;DHT22;36061;48.116;11.612;2023-08-30T11:47:04;17.00;99.90
50162;DHT22;36061;48.116;11.612;2023-08-30T11:49:31;17.00;99.90
50162;DHT22;36061;48.116;11.612;2023-08-30T11:52:00;17.00;99.90
50162;DHT22;36061;48.116;11.612;2023-08-30T11:54:27;17.20;99.90
50162;DHT22;36061;48.116;11.612;2023-08-30T11:56:54;17.30;99.90
50162;DHT22;36061;48.116;11.612;2023-08-30T11:59:22;17.40;99.90
50162;DHT22;36061;48.116;11.612;2023-08-30T12:01:52;17.50;99.90
50162;DHT22;36061;48.116;11.612;2023-08-30T12:04:19;17.70;99.90
50162;DHT22;36061;48.116;11.612;2023-08-30T12:06:51;17.80;99.90
50162;DHT22;36061;48.116;11.612;2023-08-30T12:09:19;17.90;99.90
50162;DHT22;36061;48.116;11.612;2023-08-30T12:11:47;17.90;99.90
50162;DHT22;36061;48.116;11.612;2023-08-30T12:14:15;17.90;99.90
50162;DHT22;36061;48.116;11.612;2023-08-30T12:16:42;17.90;99.90
50162;DHT22;36061;48.116;11.612;2023-08-30T12:19:12;17.80;99.90
50162;DHT22;36061;48.116;11.612;2023-08-30T12:21:40;17.70;99.90
50162;DHT22;36061;48.116;11.612;2023-08-30T12:24:08;17.70;99.90
50162;DHT22;36061;48.116;11.612;2023-08-30T12:26:35;17.60;99.90
50162;DHT22;36061;48.116;11.612;2023-08-30T12:29:04;17.60;99.90
50162;DHT22;36061;48.116;11.612;2023-08-30T12:31:32;17.50;99.90
50162;DHT22;36061;48.116;11.612;2023-08-30T12:33:59;17.50;99.90
50162;DHT22;36061;48.116;11.612;2023-08-30T12:36:28;17.50;99.90
50162;DHT22;36061;48.116;11.612;2023-08-30T12:38:55;17.40;99.90
50162;DHT22;36061;48.116;11.612;2023-08-30T12:41:22;17.30;99.90
50162;DHT22;36061;48.116;11.612;2023-08-30T12:43:50;17.20;99.90
50162;DHT22;36061;48.116;11.612;2023-08-30T12:46:17;17.20;99.90
50162;DHT22;36061;48.116;11.612;2023-08-30T12:48:44;17.00;99.90
50162;DHT22;36061;48.116;11.612;2023-08-30T12:51:12;17.00;99.90
50162;DHT22;36061;48.116;11.612;2023-08-30T12:53:42;17.00;99.90
50162;DHT22;36061;48.116;11.612;2023-08-30T12:56:09;16.90;99.90
50162;DHT22;36061;48.116;11.612;2023-08-30T12:58:36;16.90;99.90
50162;DHT22;36061;48.116;11.612;2023-08-30T13:01:02;16.90;99.90
50162;DHT22;36061;48.116;11.612;2023-08-30T13:03:30;17.00;99.90
50162;DHT22;36061;48.116;11.612;2023-08-30T13:05:59;17.00;99.90
50162;DHT22;36061;48.116;11.612;2023-08-30T13:08:26;17.10;99.90
50162;DHT22;36061;48.116;11.612;2023-08-30T13:10:54;17.20;99.90
50162;DHT22;36061;48.116;11.612;2023-08-30T13:13:22;17.30;99.90
50162;DHT22;36061;48.116;11.612;2023-08-30T13:15:49;17.40;99.90
50162;DHT22;36061;48.116;11.612;2023-08-30T13:18:16;17.50;99.90
50162;DHT22;36061;48.116;11.612;2023-08-30T13:20:44;17.50;99.90
50162;DHT22;36061;48.116;11.612;2023-08-30T13:23:11;17.60;99.90
50162;DHT22;36061;48.116;11.612;2023-08-30T13:25:39;17.60;99.90
50162;DHT22;36061;48.116;11.612;2023-08-30T13:28:08;17.60;99.90
50162;DHT22;36061;48.116;11.612;2023-08-30T13:30:35;17.70;99.90
50162;DHT22;36061;48.116;11.612;2023-08-30T13:33:03;17.70;99.90
50162;DHT22;36061;48.116;11.612;2023-08-30T13:35:30;17.80;99.90
50162;DHT22;36061;48.116;11.612;2023-08-30T13:37:57;17.80;99.90
50162;DHT22;36061;48.116;11.612;2023-08-30T13:40:24;17.80;99.90
50162;DHT22;36061;48.116;11.612;2023-08-30T13:42:51;17.70;99.90
50162;DHT22;36061;48.116;11.612;2023-08-30T13:45:20;17.70;99.90
50162;DHT22;36061;48.116;11.612;2023-08-30T13:47:47;17.60;99.90
50162;DHT22;36061;48.116;11.612;2023-08-30T13:50:17;17.60;99.90
50162;DHT22;36061;48.116;11.612;2023-08-30T13:52:44;17.50;99.90
50162;DHT22;36061;48.116;11.612;2023-08-30T13:55:12;17.50;99.90
50162;DHT22;36061;48.116;11.612;2023-08-30T13:57:39;17.50;99.90
50162;DHT22;36061;48.116;11.612;2023-08-30T14:00:07;17.50;99.90
50162;DHT22;36061;48.116;11.612;2023-08-30T14:02:37;17.40;99.90
50162;DHT22;36061;48.116;11.612;2023-08-30T14:05:05;17.30;99.90
50162;DHT22;36061;48.116;11.612;2023-08-30T14:07:33;17.20;99.90
50162;DHT22;36061;48.116;11.612;2023-08-30T14:10:00;17.10;99.90
50162;DHT22;36061;48.116;11.612;2023-08-30T14:12:28;17.00;99.90
50162;DHT22;36061;48.116;11.612;2023-08-30T14:14:55;16.90;99.90
50162;DHT22;36061;48.116;11.612;2023-08-30T14:17:22;16.90;99.90
50162;DHT22;36061;48.116;11.612;2023-08-30T14:19:51;16.80;99.90
50162;DHT22;36061;48.116;11.612;2023-08-30T14:22:18;16.80;99.90
50162;DHT22;36061;48.116;11.612;2023-08-30T14:24:45;16.60;99.90
50162;DHT22;36061;48.116;11.612;2023-08-30T14:27:13;16.40;99.90
50162;DHT22;36061;48.116;11.612;2023-08-30T14:29:40;16.30;99.90
50162;DHT22;36061;48.116;11.612;2023-08-30T14:32:07;16.20;99.90
50162;DHT22;36061;48.116;11.612;2023-08-30T14:34:35;16.10;99.90
50162;DHT22;36061;48.116;11.612;2023-08-30T14:37:03;16.10;99.90
50162;DHT22;36061;48.116;11.612;2023-08-30T14:39:30;16.00;99.90
50162;DHT22;36061;48.116;11.612;2023-08-30T14:41:58;16.00;99.90
50162;DHT22;36061;48.116;11.612;2023-08-30T14:44:25;16.00;99.90
50162;DHT22;36061;48.116;11.612;2023-08-30T14:46:53;15.90;99.90
50162;DHT22;36061;48.116;11.612;2023-08-30T14:49:20;15.90;99.90
50162;DHT22;36061;48.116;11.612;2023-08-30T14:51:48;16.00;99.90
50162;DHT22;36061;48.116;11.612;2023-08-30T14:54:16;16.10;99.90
50162;DHT22;36061;48.116;11.612;2023-08-30T14:56:43;16.20;99.90
50162;DHT22;36061;48.116;11.612;2023-08-30T14:59:11;16.20;99.90
50162;DHT22;36061;48.116;11.612;2023-08-30T15:01:38;16.30;99.90
50162;DHT22;36061;48.116;11.612;2023-08-30T15:04:05;16.30;99.90
50162;DHT22;36061;48.116;11.612;2023-08-30T15:06:32;16.30;99.90
50162;DHT22;36061;48.116;11.612;2023-08-30T15:09:00;16.40;99.90
50162;DHT22;36061;48.116;11.612;2023-08-30T15:11:30;16.40;99.90
50162;DHT22;36061;48.116;11.612;2023-08-30T15:13:57;16.30;99.90
50162;DHT22;36061;48.116;11.612;2023-08-30T15:16:24;16.40;99.90
50162;DHT22;36061;48.116;11.612;2023-08-30T15:18:52;16.40;99.90
50162;DHT22;36061;48.116;11.612;2023-08-30T15:21:19;16.40;99.90
50162;DHT22;36061;48.116;11.612;2023-08-30T15:23:46;16.40;99.90